| time (UTC) | temp C | wind direction | speed KPH | gust KPH | rain 1hr cm | rain 24hr cm | rain mn cm | humidity % | barometer mb |
| 20260507201540 | 16 | 136 | 3.2 | 12.9 | 0.00 | 0.25 | 0.05 | 63 | 1008.5 |
| 20260507200051 | 16 | 162 | 3.2 | 12.9 | 0.00 | 0.25 | 0.05 | 64 | 1008.5 |
| 20260507194549 | 17 | 119 | 4.8 | 19.3 | 0.00 | 0.25 | 0.05 | 62 | 1008.5 |
| 20260507193037 | 17 | 127 | 1.6 | 9.7 | 0.00 | 0.25 | 0.05 | 60 | 1008.9 |
| 20260507191539 | 19 | 325 | 3.2 | 14.5 | 0.00 | 0.25 | 0.05 | 55 | 1008.9 |
| 20260507190043 | 18 | 240 | 1.6 | 12.9 | 0.00 | 0.25 | 0.05 | 57 | 1008.8 |
| 20260507184542 | 17 | 41 | 0.0 | 6.4 | 0.00 | 0.25 | 0.05 | 59 | 1009.1 |
| 20260507183031 | 16 | 130 | 3.2 | 9.7 | 0.00 | 0.25 | 0.05 | 58 | 1009.1 |
| 20260507181530 | 16 | 117 | 0.0 | 4.8 | 0.00 | 0.25 | 0.05 | 60 | 1009.3 |
| 20260507180030 | 16 | 60 | 1.6 | 6.4 | 0.00 | 0.25 | 0.05 | 61 | 1009.5 |
| 20260507174534 | 17 | 42 | 1.6 | 9.7 | 0.00 | 0.25 | 0.05 | 60 | 1009.8 |
| 20260507173041 | 18 | 107 | 1.6 | 9.7 | 0.00 | 0.25 | 0.05 | 55 | 1010.0 |
| 20260507171529 | 17 | 148 | 1.6 | 8.0 | 0.00 | 0.25 | 0.05 | 58 | 1010.0 |
| 20260507170027 | 17 | 121 | 1.6 | 4.8 | 0.00 | 0.25 | 0.05 | 56 | 1010.5 |
| 20260507164533 | 17 | 36 | 4.8 | 8.0 | 0.00 | 0.25 | 0.05 | 58 | 1010.7 |
| 20260507163025 | 17 | 36 | 3.2 | 8.0 | 0.00 | 0.25 | 0.05 | 59 | 1011.0 |
| 20260507161521 | 16 | 242 | 4.8 | 11.3 | 0.00 | 0.25 | 0.05 | 58 | 1011.1 |
| 20260507160024 | 15 | 65 | 1.6 | 6.4 | 0.00 | 0.25 | 0.05 | 61 | 1011.3 |
| 20260507154515 | 14 | 225 | 3.2 | 14.5 | 0.00 | 0.25 | 0.05 | 61 | 1011.4 |
| 20260507153013 | 13 | 243 | 6.4 | 12.9 | 0.00 | 0.25 | 0.05 | 63 | 1011.4 |
| 20260507151513 | 13 | 114 | 1.6 | 9.7 | 0.00 | 0.25 | 0.05 | 65 | 1011.4 |
| 20260507150012 | 13 | 134 | 3.2 | 4.8 | 0.00 | 0.25 | 0.05 | 66 | 1011.8 |
| 20260507144511 | 12 | 149 | 0.0 | 6.4 | 0.00 | 0.25 | 0.05 | 67 | 1012.1 |
| 20260507143019 | 12 | 54 | 0.0 | 4.8 | 0.00 | 0.25 | 0.05 | 68 | 1012.5 |
| 20260507141516 | 11 | 233 | 0.0 | 4.8 | 0.00 | 0.25 | 0.05 | 67 | 1012.5 |
| 20260507140010 | 11 | 239 | 1.6 | 8.0 | 0.00 | 0.25 | 0.05 | 73 | 1012.5 |
| 20260507134508 | 11 | 161 | 0.0 | 6.4 | 0.00 | 0.25 | 0.05 | 75 | 1012.5 |
| 20260507133007 | 11 | 219 | 0.0 | 4.8 | 0.00 | 0.25 | 0.05 | 73 | 1012.7 |
| 20260507131515 | 11 | 121 | 0.0 | 4.8 | 0.00 | 0.25 | 0.05 | 77 | 1012.8 |
| 20260507130005 | 11 | 253 | 4.8 | 14.5 | 0.00 | 0.25 | 0.05 | 78 | 1012.9 |
| 20260507124508 | 11 | 246 | 1.6 | 9.7 | 0.00 | 0.25 | 0.05 | 78 | 1012.5 |
| 20260507123003 | 11 | 279 | 0.0 | 8.0 | 0.00 | 0.25 | 0.05 | 79 | 1012.4 |
| 20260507121603 | 11 | 267 | 0.0 | 4.8 | 0.00 | 0.25 | 0.05 | 83 | 1012.4 |
| 20260507120100 | 11 | 243 | 1.6 | 4.8 | 0.00 | 0.25 | 0.05 | 84 | 1012.4 |
| 20260507114609 | 11 | 249 | 1.6 | 12.9 | 0.00 | 0.28 | 0.05 | 82 | 1012.2 |
| 20260507113126 | 11 | 281 | 0.0 | 6.4 | 0.00 | 0.28 | 0.05 | 85 | 1012.1 |
| 20260507111557 | 11 | 207 | 0.0 | 3.2 | 0.00 | 0.28 | 0.05 | 90 | 1011.8 |
| 20260507110052 | 11 | 213 | 0.0 | 3.2 | 0.00 | 0.28 | 0.05 | 91 | 1011.5 |
| 20260507104551 | 11 | 96 | 0.0 | 3.2 | 0.00 | 0.28 | 0.05 | 91 | 1011.7 |
| 20260507103054 | 11 | 86 | 0.0 | 0.0 | 0.00 | 0.28 | 0.05 | 92 | 1011.5 |
| 20260507101549 | 11 | 87 | 0.0 | 4.8 | 0.00 | 0.28 | 0.05 | 93 | 1011.4 |
| 20260507100047 | 11 | 31 | 0.0 | 4.8 | 0.00 | 0.28 | 0.05 | 93 | 1011.6 |
| 20260507094546 | 11 | 20 | 0.0 | 0.0 | 0.00 | 0.28 | 0.05 | 92 | 1011.2 |
| 20260507093048 | 11 | 20 | 0.0 | 3.2 | 0.00 | 0.28 | 0.05 | 92 | 1011.1 |
| 20260507091544 | 11 | 210 | 0.0 | 4.8 | 0.00 | 0.28 | 0.05 | 92 | 1011.1 |
| 20260507090041 | 11 | 149 | 0.0 | 0.0 | 0.00 | 0.28 | 0.05 | 93 | 1010.7 |
| 20260507084545 | 11 | 279 | 0.0 | 0.0 | 0.00 | 0.28 | 0.05 | 94 | 1010.6 |
| 20260507083039 | 11 | 279 | 0.0 | 3.2 | 0.00 | 0.28 | 0.05 | 94 | 1010.8 |
| 20260507081541 | 11 | 237 | 0.0 | 1.6 | 0.00 | 0.28 | 0.05 | 93 | 1010.8 |
| 20260507080035 | 11 | 140 | 0.0 | 3.2 | 0.00 | 0.28 | 0.05 | 92 | 1010.7 |
| 20260507074536 | 11 | 209 | 0.0 | 3.2 | 0.00 | 0.28 | 0.05 | 93 | 1010.6 |
| 20260507073034 | 11 | 136 | 0.0 | 3.2 | 0.00 | 0.28 | 0.05 | 94 | 1010.0 |
| 20260507071531 | 11 | 116 | 0.0 | 4.8 | 0.00 | 0.28 | 0.05 | 93 | 1010.3 |
| 20260507070031 | 11 | 104 | 0.0 | 3.2 | 0.00 | 0.28 | 0.05 | 93 | 1010.0 |
| 20260507064528 | 12 | 116 | 0.0 | 6.4 | 0.00 | 0.28 | 0.05 | 93 | 1010.1 |
| 20260507063028 | 12 | 192 | 0.0 | 11.3 | 0.00 | 0.28 | 0.05 | 93 | 1009.9 |
| 20260507061525 | 12 | 235 | 1.6 | 6.4 | 0.03 | 0.28 | 0.05 | 93 | 1010.2 |
| 20260507060027 | 12 | 228 | 0.0 | 4.8 | 0.03 | 0.28 | 0.05 | 94 | 1010.4 |
| 20260507054520 | 12 | 109 | 0.0 | 4.8 | 0.03 | 0.28 | 0.05 | 95 | 1010.4 |
| 20260507053019 | 13 | 123 | 1.6 | 6.4 | 0.03 | 0.28 | 0.05 | 94 | 1010.2 |
| 20260507051517 | 13 | 60 | 1.6 | 6.4 | 0.00 | 0.25 | 0.03 | 95 | 1010.2 |
| 20260507050024 | 13 | 232 | 0.0 | 3.2 | 0.03 | 0.25 | 0.03 | 96 | 1010.1 |
| 20260507044515 | 13 | 5 | 1.6 | 6.4 | 0.03 | 0.25 | 0.03 | 95 | 1009.7 |
| 20260507043020 | 13 | 213 | 0.0 | 1.6 | 0.03 | 0.25 | 0.03 | 95 | 1010.0 |
| 20260507041509 | 14 | 104 | 0.0 | 3.2 | 0.05 | 0.25 | 0.03 | 94 | 1009.7 |
| 20260507040006 | 14 | 67 | 0.0 | 4.8 | 0.05 | 0.23 | 0.00 | 95 | 1010.0 |
| 20260507034508 | 15 | 260 | 0.0 | 1.6 | 0.05 | 0.23 | 0.23 | 94 | 1010.1 |
| 20260507033005 | 15 | 248 | 0.0 | 1.6 | 0.05 | 0.23 | 0.23 | 94 | 1009.9 |
| 20260507031504 | 15 | 248 | 0.0 | 1.6 | 0.05 | 0.20 | 0.20 | 95 | 1009.5 |
| 20260507030007 | 16 | 236 | 0.0 | 3.2 | 0.03 | 0.18 | 0.18 | 96 | 1009.7 |
| 20260507024508 | 16 | 243 | 1.6 | 6.4 | 0.03 | 0.18 | 0.18 | 96 | 1009.8 |
| 20260507023007 | 16 | 38 | 0.0 | 6.4 | 0.03 | 0.18 | 0.18 | 96 | 1009.3 |
| 20260507021502 | 16 | 231 | 3.2 | 8.0 | 0.00 | 0.15 | 0.15 | 97 | 1009.6 |
| 20260507020002 | 16 | 138 | 0.0 | 0.0 | 0.00 | 0.15 | 0.15 | 97 | 1009.4 |
| 20260507014502 | 16 | 138 | 0.0 | 1.6 | 0.00 | 0.15 | 0.15 | 97 | 1009.0 |
| 20260507013001 | 17 | 138 | 0.0 | 0.0 | 0.00 | 0.15 | 0.15 | 97 | 1009.0 |
| 20260507011602 | 17 | 138 | 0.0 | 1.6 | 0.00 | 0.15 | 0.15 | 96 | 1009.2 |
| 20260507010100 | 17 | 137 | 0.0 | 3.2 | 0.00 | 0.15 | 0.15 | 97 | 1009.3 |
| 20260507004603 | 17 | 113 | 0.0 | 6.4 | 0.00 | 0.15 | 0.15 | 97 | 1009.3 |
| 20260507003115 | 17 | 267 | 0.0 | 6.4 | 0.05 | 0.15 | 0.15 | 96 | 1009.0 |
| 20260507001615 | 17 | 275 | 0.0 | 1.6 | 0.05 | 0.15 | 0.15 | 96 | 1008.9 |
| 20260507000057 | 17 | 296 | 0.0 | 3.2 | 0.08 | 0.15 | 0.15 | 96 | 1008.7 |
| 20260506234557 | 17 | 219 | 1.6 | 8.0 | 0.10 | 0.15 | 0.15 | 96 | 1008.5 |
| 20260506233058 | 18 | 277 | 3.2 | 8.0 | 0.08 | 0.10 | 0.10 | 95 | 1008.6 |
| 20260506231604 | 18 | 236 | 0.0 | 1.6 | 0.08 | 0.10 | 0.10 | 93 | 1008.1 |
| 20260506230109 | 18 | 236 | 0.0 | 3.2 | 0.05 | 0.08 | 0.08 | 92 | 1008.3 |
| 20260506224554 | 19 | 236 | 0.0 | 1.6 | 0.03 | 0.05 | 0.05 | 89 | 1008.2 |
| 20260506223057 | 20 | 236 | 0.0 | 3.2 | 0.00 | 0.03 | 0.03 | 86 | 1008.0 |
| 20260506221606 | 21 | 236 | 0.0 | 4.8 | 0.00 | 0.03 | 0.03 | 82 | 1007.8 |
| 20260506220054 | 21 | 5 | 0.0 | 3.2 | 0.00 | 0.03 | 0.03 | 82 | 1007.8 |
| 20260506214555 | 21 | 123 | 1.6 | 4.8 | 0.00 | 0.03 | 0.03 | 80 | 1007.8 |
| 20260506213051 | 20 | 45 | 0.0 | 3.2 | 0.00 | 0.03 | 0.03 | 81 | 1007.8 |
| 20260506211551 | 21 | 140 | 1.6 | 4.8 | 0.00 | 0.03 | 0.03 | 80 | 1007.8 |
| 20260506210056 | 21 | 117 | 0.0 | 4.8 | 0.00 | 0.03 | 0.03 | 79 | 1007.6 |
| 20260506204553 | 21 | 63 | 0.0 | 3.2 | 0.00 | 0.03 | 0.03 | 81 | 1007.3 |
| 20260506203056 | 20 | 105 | 1.6 | 4.8 | 0.00 | 0.03 | 0.03 | 81 | 1007.5 |